Skip Navigation Links
NOAA logo - Click to go to the NOAA homepage
NOAA's National Weather Service
Alaska Aviation Weather Unit
  NWS logo - Click to go to the NWS homepage
Left Navbar Graphic     23 AKDT = 07 GMT

   
NOAA is celebrating 200 years of science, service, and stewardship. Visit the NOAA 200th celebration Web site to learn more.
USA.gov is the U.S. Government's official Web portal to all Federal, state and local government Web resources and services.
Facebook
NWS on Facebook

AAWU Home :: Display TAF Add Bookmark
TAF PAEN 240525Z 2406/2506 36010KT P6SM VCSH BKN060
     FM241200 03010KT P6SM VCSH BKN035=
METAR PAEN 240153Z 34009KT 10SM OVC060 11/04 A2966=

METAR PAEN 240253Z 34009KT 10SM FEW045 BKN075 OVC095 11/03 A2965=

METAR PAEN 240353Z 36009KT 10SM BKN080 OVC095 10/03 A2964=

METAR PAEN 240453Z AUTO 36008KT 10SM OVC085 08/03 A2964=

METAR PAEN 240553Z AUTO 36007KT 10SM OVC080 07/03 A2965=

METAR PAEN 240653Z AUTO 01003KT 10SM BKN080 OVC100 06/03 A2965=


NOAA's National Weather Service
Alaska Aviation Weather Unit
6930 Sand Lake Road
Anchorage, AK 99502-1845
Disclaimer
Credits
Glossary
Privacy Policy
About Us
Career Opportunities
Contact AAWU Internet Services Site last modified: April, 17th 2012